createdAt,value
2019-04-29T00:00:48.063Z,91.08
2019-04-29T00:03:19.404Z,91.04
2019-04-29T00:05:50.832Z,90.89
2019-04-29T00:08:22.200Z,90.88
2019-04-29T00:10:53.806Z,90.89
2019-04-29T00:13:25.089Z,90.91
2019-04-29T00:16:12.649Z,91.21
2019-04-29T00:18:56.562Z,91.27
2019-04-29T00:21:27.920Z,91.25
2019-04-29T00:24:04.160Z,91.33
2019-04-29T00:26:32.162Z,91.36
2019-04-29T00:29:03.492Z,91.22
2019-04-29T00:31:34.745Z,91.04
2019-04-29T00:34:06.001Z,90.97
2019-04-29T00:36:44.042Z,91.03
2019-04-29T00:39:42.926Z,91.09
2019-04-29T00:42:27.835Z,91.17
2019-04-29T00:44:59.219Z,91.42
2019-04-29T00:47:30.729Z,91.57
2019-04-29T00:50:01.942Z,91.67
2019-04-29T00:52:33.252Z,91.90
2019-04-29T00:55:09.836Z,91.91
2019-04-29T00:57:41.012Z,91.91
2019-04-29T01:00:17.548Z,91.81
2019-04-29T01:02:48.721Z,91.77
2019-04-29T01:05:19.933Z,91.68
2019-04-29T01:07:51.305Z,91.49
2019-04-29T01:10:22.533Z,91.52
2019-04-29T01:12:53.807Z,91.37
2019-04-29T01:15:25.155Z,91.31
2019-04-29T01:17:56.396Z,91.31
2019-04-29T01:20:27.621Z,91.42
2019-04-29T01:23:01.149Z,91.47
2019-04-29T01:25:32.264Z,91.44
2019-04-29T01:28:13.849Z,91.48
2019-04-29T01:31:17.862Z,91.76
2019-04-29T01:33:50.715Z,91.85
2019-04-29T01:36:40.656Z,91.77
2019-04-29T01:39:14.447Z,91.73
2019-04-29T01:41:51.723Z,91.70
2019-04-29T01:44:23.279Z,91.55
2019-04-29T01:46:54.583Z,91.54
2019-04-29T01:49:25.839Z,91.63
2019-04-29T01:51:57.044Z,91.60
2019-04-29T01:54:28.223Z,91.59
2019-04-29T01:56:59.497Z,91.54
2019-04-29T01:59:30.769Z,91.56
2019-04-29T02:02:02.005Z,91.62
2019-04-29T02:04:33.158Z,91.72
2019-04-29T02:07:04.561Z,91.77
2019-04-29T02:09:57.317Z,91.89
2019-04-29T02:12:28.564Z,92.00
2019-04-29T02:14:59.836Z,91.92
2019-04-29T02:17:31.067Z,91.79
2019-04-29T02:20:02.217Z,91.68
2019-04-29T02:22:50.494Z,91.71
2019-04-29T02:25:27.418Z,91.77
2019-04-29T02:27:58.602Z,91.79
2019-04-29T02:30:52.417Z,91.84
2019-04-29T02:33:23.532Z,91.77
2019-04-29T02:35:54.861Z,91.72
2019-04-29T02:38:36.035Z,91.73
2019-04-29T02:41:29.091Z,91.70
2019-04-29T02:44:01.907Z,91.62
2019-04-29T02:46:33.251Z,91.74
2019-04-29T02:49:04.638Z,91.80
2019-04-29T02:51:52.060Z,91.91
2019-04-29T02:54:24.540Z,92.03
2019-04-29T02:57:10.482Z,92.29
2019-04-29T02:59:46.053Z,92.15
2019-04-29T03:02:34.289Z,91.91
2019-04-29T03:05:15.356Z,91.94
2019-04-29T03:07:46.552Z,92.16
2019-04-29T03:10:20.173Z,92.23
2019-04-29T03:12:51.515Z,92.25
2019-04-29T03:15:32.798Z,92.21
2019-04-29T03:18:04.609Z,92.08
2019-04-29T03:20:45.137Z,92.11
2019-04-29T03:23:18.460Z,92.21
2019-04-29T03:25:49.677Z,92.17
2019-04-29T03:28:20.936Z,92.09
2019-04-29T03:30:52.133Z,92.12
2019-04-29T03:33:23.308Z,92.12
2019-04-29T03:35:54.543Z,92.15
2019-04-29T03:38:25.817Z,92.26
2019-04-29T03:40:57.018Z,92.37
2019-04-29T03:43:28.296Z,92.34
2019-04-29T03:45:59.518Z,92.32
2019-04-29T03:48:30.796Z,92.49
2019-04-29T03:51:02.097Z,92.56
2019-04-29T03:53:33.361Z,92.60
2019-04-29T03:56:04.722Z,92.63
2019-04-29T03:58:35.913Z,92.71
2019-04-29T04:01:15.167Z,92.80
2019-04-29T04:03:54.089Z,92.78
2019-04-29T04:06:40.070Z,92.69
2019-04-29T04:09:15.190Z,92.74
2019-04-29T04:11:46.464Z,92.77
2019-04-29T04:14:17.700Z,92.68
2019-04-29T04:17:06.731Z,92.66
2019-04-29T04:19:38.073Z,92.71
2019-04-29T04:22:09.440Z,92.86
2019-04-29T04:24:40.637Z,92.87
2019-04-29T04:27:11.851Z,92.90
2019-04-29T04:29:43.034Z,92.89
2019-04-29T04:32:14.284Z,92.86
2019-04-29T04:34:45.533Z,92.88
2019-04-29T04:37:16.833Z,92.91
2019-04-29T04:39:48.145Z,92.90
2019-04-29T04:42:19.271Z,92.89
2019-04-29T04:44:50.597Z,92.88
2019-04-29T04:47:22.230Z,92.95
2019-04-29T04:49:54.080Z,93.00
2019-04-29T04:52:25.220Z,93.02
2019-04-29T04:54:56.401Z,93.04
2019-04-29T04:57:27.666Z,93.03
2019-04-29T04:59:58.955Z,93.03
2019-04-29T05:02:30.190Z,93.03
2019-04-29T05:05:01.433Z,93.13
2019-04-29T05:07:32.656Z,93.22
2019-04-29T05:10:04.133Z,93.33
2019-04-29T05:12:38.467Z,93.43
2019-04-29T05:15:09.825Z,93.46
2019-04-29T05:17:41.044Z,93.51
2019-04-29T05:20:13.416Z,93.54
2019-04-29T05:22:59.725Z,93.61
2019-04-29T05:25:33.233Z,93.64
2019-04-29T05:28:05.614Z,93.68
2019-04-29T05:30:36.852Z,93.72
2019-04-29T05:33:08.091Z,93.73
2019-04-29T05:36:10.486Z,93.71
2019-04-29T05:38:54.401Z,93.71
2019-04-29T05:41:30.112Z,93.68
2019-04-29T05:44:07.155Z,93.68
2019-04-29T05:46:57.146Z,93.78
2019-04-29T05:49:37.518Z,94.04
2019-04-29T05:52:15.834Z,94.53
2019-04-29T05:54:46.920Z,95.02
2019-04-29T05:57:20.462Z,95.61
2019-04-29T05:59:51.108Z,96.15
2019-04-29T06:02:24.071Z,96.51
2019-04-29T06:04:55.205Z,96.89
2019-04-29T06:07:26.958Z,97.13
2019-04-29T06:09:58.406Z,97.28
2019-04-29T06:12:29.700Z,81.82
2019-04-29T06:15:01.014Z,77.65
2019-04-29T06:17:32.390Z,74.86
2019-04-29T06:20:03.715Z,70.76
2019-04-29T06:22:37.899Z,68.59
2019-04-29T06:25:08.171Z,68.45
2019-04-29T06:27:39.464Z,65.63
2019-04-29T06:30:10.918Z,62.71
2019-04-29T06:32:42.215Z,60.20
2019-04-29T06:35:15.316Z,60.31
2019-04-29T06:37:46.643Z,63.30
2019-04-29T06:40:18.235Z,60.60
2019-04-29T06:42:53.000Z,62.43
2019-04-29T06:45:22.316Z,61.94
2019-04-29T06:47:53.833Z,63.18
2019-04-29T06:50:25.610Z,62.66
2019-04-29T06:52:56.942Z,61.97
2019-04-29T06:55:28.236Z,61.30
2019-04-29T06:57:59.698Z,60.56
2019-04-29T07:00:30.948Z,59.04
2019-04-29T07:03:02.097Z,59.61
2019-04-29T07:05:33.392Z,57.65
2019-04-29T07:08:04.574Z,55.46
2019-04-29T07:10:35.881Z,51.21
2019-04-29T07:13:07.346Z,51.62
2019-04-29T07:15:38.625Z,52.12
2019-04-29T07:18:09.773Z,52.77
2019-04-29T07:20:41.052Z,48.64
2019-04-29T07:23:12.284Z,50.55
2019-04-29T07:25:43.537Z,49.47
2019-04-29T07:28:18.376Z,47.39
2019-04-29T07:31:00.965Z,46.22
2019-04-29T07:33:22.776Z,43.88
2019-04-29T07:35:53.493Z,43.62
2019-04-29T07:38:24.746Z,41.37
2019-04-29T07:40:55.967Z,43.10
2019-04-29T07:43:28.419Z,44.14
2019-04-29T07:46:08.706Z,43.08
2019-04-29T07:48:42.062Z,41.88
2019-04-29T07:51:12.840Z,42.70
2019-04-29T07:53:45.632Z,41.79
2019-04-29T07:56:16.984Z,41.97
2019-04-29T07:58:48.628Z,43.48
2019-04-29T08:01:24.599Z,43.80
2019-04-29T08:03:53.092Z,43.87
2019-04-29T08:06:24.664Z,42.33
2019-04-29T08:09:02.731Z,43.51
2019-04-29T08:11:29.059Z,45.12
2019-04-29T08:14:05.356Z,43.26
2019-04-29T08:16:36.570Z,42.02
2019-04-29T08:19:07.749Z,41.09
2019-04-29T08:21:39.020Z,41.01
2019-04-29T08:24:11.570Z,42.09
2019-04-29T08:26:47.320Z,42.64
2019-04-29T08:29:16.170Z,44.12
2019-04-29T08:31:47.472Z,45.39
2019-04-29T08:34:22.968Z,44.44
2019-04-29T08:36:51.567Z,43.43
2019-04-29T08:39:25.162Z,44.06
2019-04-29T08:41:58.808Z,43.48
2019-04-29T08:44:54.744Z,44.56
2019-04-29T08:47:31.464Z,39.74
2019-04-29T08:50:00.398Z,43.57
2019-04-29T08:52:31.649Z,46.85
2019-04-29T08:55:03.975Z,47.05
2019-04-29T08:57:36.495Z,46.19
2019-04-29T09:00:11.602Z,45.69
2019-04-29T09:02:47.447Z,46.81
2019-04-29T09:05:16.010Z,45.45
2019-04-29T09:07:47.182Z,44.32
2019-04-29T09:10:19.167Z,42.73
2019-04-29T09:12:50.403Z,40.75
2019-04-29T09:15:21.735Z,44.32
2019-04-29T09:17:52.937Z,45.13
2019-04-29T09:20:24.335Z,44.16
2019-04-29T09:23:00.155Z,41.30
2019-04-29T09:25:39.357Z,41.84
2019-04-29T09:28:17.659Z,42.30
2019-04-29T09:30:45.779Z,40.35
2019-04-29T09:33:17.112Z,41.05
2019-04-29T09:35:48.316Z,40.22
2019-04-29T09:38:19.604Z,45.72
2019-04-29T09:40:59.618Z,45.63
2019-04-29T09:43:50.680Z,44.80
2019-04-29T09:46:34.503Z,42.76
2019-04-29T09:49:04.143Z,45.00
2019-04-29T09:51:35.541Z,46.80
2019-04-29T09:54:09.602Z,47.57
2019-04-29T09:56:39.993Z,48.02
2019-04-29T09:59:31.613Z,48.13
2019-04-29T10:02:12.679Z,48.85
2019-04-29T10:05:17.699Z,49.44
2019-04-29T10:07:48.982Z,49.51
2019-04-29T10:10:20.435Z,49.23
2019-04-29T10:12:53.916Z,49.96
2019-04-29T10:15:34.373Z,51.31
2019-04-29T10:21:00.247Z,47.14
2019-04-29T10:23:31.461Z,47.56
2019-04-29T10:26:02.736Z,48.67
2019-04-29T10:28:35.673Z,49.20
2019-04-29T10:31:21.535Z,48.60
2019-04-29T10:34:00.522Z,47.47
2019-04-29T10:36:47.486Z,47.01
2019-04-29T10:39:50.257Z,49.00
2019-04-29T10:42:48.199Z,47.83
2019-04-29T10:45:40.574Z,47.68
2019-04-29T10:48:23.123Z,49.07
2019-04-29T10:50:56.401Z,46.04
2019-04-29T10:53:28.943Z,47.25
2019-04-29T10:56:05.557Z,46.03
2019-04-29T10:58:35.588Z,46.85
2019-04-29T11:02:37.662Z,47.72
2019-04-29T11:05:29.720Z,46.35
2019-04-29T11:08:26.559Z,49.43
2019-04-29T11:11:02.335Z,48.12
2019-04-29T11:13:31.519Z,45.45
2019-04-29T11:16:02.794Z,46.36
2019-04-29T11:18:34.201Z,46.68
2019-04-29T11:21:08.679Z,47.81
2019-04-29T11:24:00.096Z,48.14
2019-04-29T11:26:50.167Z,48.85
2019-04-29T11:29:22.071Z,45.65
2019-04-29T11:31:56.110Z,46.10
2019-04-29T11:34:43.888Z,45.90
2019-04-29T11:37:17.765Z,46.91
2019-04-29T11:39:51.615Z,45.12
2019-04-29T11:42:26.019Z,43.74
2019-04-29T11:45:02.161Z,45.02
2019-04-29T11:47:31.052Z,47.45
2019-04-29T11:50:15.399Z,46.76
2019-04-29T11:52:46.674Z,46.09
2019-04-29T11:55:20.185Z,46.67
2019-04-29T11:57:56.593Z,43.57
2019-04-29T12:00:53.147Z,45.10
2019-04-29T12:03:28.015Z,44.56
2019-04-29T12:06:02.450Z,42.43
2019-04-29T12:08:33.974Z,42.96
2019-04-29T12:11:07.384Z,42.96
2019-04-29T12:14:06.795Z,46.23
2019-04-29T12:16:55.793Z,46.84
2019-04-29T12:19:30.177Z,43.71
2019-04-29T12:22:04.891Z,45.23
2019-04-29T12:24:35.485Z,46.50
2019-04-29T12:27:07.208Z,46.22
2019-04-29T12:29:38.731Z,48.75
2019-04-29T12:32:27.612Z,45.98
2019-04-29T12:35:16.737Z,43.36
2019-04-29T12:38:05.859Z,46.13
2019-04-29T12:41:20.842Z,42.43
2019-04-29T12:43:59.808Z,44.78
2019-04-29T12:46:55.705Z,45.23
2019-04-29T12:49:30.016Z,45.16
2019-04-29T12:52:01.238Z,43.85
2019-04-29T12:54:32.607Z,45.33
2019-04-29T12:57:03.956Z,46.01
2019-04-29T12:59:37.209Z,46.36
2019-04-29T13:02:26.374Z,46.82
2019-04-29T13:05:09.602Z,45.16
2019-04-29T13:08:01.113Z,45.98
2019-04-29T13:10:46.671Z,44.60
2019-04-29T13:13:20.151Z,47.14
2019-04-29T13:16:20.110Z,44.80
2019-04-29T13:19:12.278Z,44.37
2019-04-29T13:21:41.957Z,43.76
2019-04-29T13:24:23.146Z,44.12
2019-04-29T13:26:46.222Z,47.12
2019-04-29T13:29:26.835Z,44.66
2019-04-29T13:31:50.427Z,43.01
2019-04-29T13:34:32.955Z,44.39
2019-04-29T13:37:07.357Z,47.40
2019-04-29T13:39:39.761Z,46.42
2019-04-29T13:42:09.146Z,45.64
2019-04-29T13:44:46.067Z,45.44
2019-04-29T13:47:40.321Z,45.09
2019-04-29T13:50:38.690Z,44.76
2019-04-29T13:52:59.182Z,44.67
2019-04-29T13:55:47.750Z,44.78
2019-04-29T13:58:06.081Z,41.08
2019-04-29T14:01:02.175Z,43.65
2019-04-29T14:03:42.053Z,44.69
2019-04-29T14:06:14.430Z,45.38
2019-04-29T14:08:44.067Z,44.98
2019-04-29T14:11:15.492Z,44.48
2019-04-29T14:13:48.499Z,46.91
2019-04-29T14:16:19.671Z,43.95
2019-04-29T14:18:51.021Z,45.70
2019-04-29T14:21:25.717Z,47.02
2019-04-29T14:23:55.226Z,47.30
2019-04-29T14:26:29.385Z,45.92
2019-04-29T14:28:59.410Z,46.81
2019-04-29T14:31:30.811Z,46.81
2019-04-29T14:34:26.570Z,45.97
2019-04-29T14:37:18.311Z,47.68
2019-04-29T14:39:37.258Z,47.81
2019-04-29T14:42:14.845Z,46.63
2019-04-29T14:44:53.566Z,45.43
2019-04-29T14:47:41.120Z,46.61
2019-04-29T14:50:15.740Z,46.99
2019-04-29T14:52:49.382Z,46.40
2019-04-29T14:55:20.052Z,44.88
2019-04-29T14:57:51.787Z,45.75
2019-04-29T15:00:36.594Z,47.56
2019-04-29T15:03:07.905Z,48.58
2019-04-29T15:05:39.185Z,48.02
2019-04-29T15:08:10.470Z,48.44
2019-04-29T15:10:42.673Z,49.21
2019-04-29T15:13:21.320Z,48.38
2019-04-29T15:16:04.739Z,49.71
2019-04-29T15:18:50.322Z,49.66
2019-04-29T15:21:45.718Z,48.71
2019-04-29T15:24:17.708Z,49.38
2019-04-29T15:26:49.046Z,49.52
2019-04-29T15:29:20.333Z,48.63
2019-04-29T15:31:51.439Z,48.97
2019-04-29T15:34:22.723Z,49.68
2019-04-29T15:36:53.876Z,50.32
2019-04-29T15:39:26.044Z,49.72
2019-04-29T15:41:57.610Z,49.54
2019-04-29T15:44:28.981Z,50.31
2019-04-29T15:47:00.340Z,51.74
2019-04-29T15:49:35.002Z,49.83
2019-04-29T15:52:06.231Z,51.51
2019-04-29T15:54:39.533Z,51.07
2019-04-29T15:57:15.467Z,51.56
2019-04-29T15:59:48.871Z,51.65
2019-04-29T16:02:16.671Z,51.69
2019-04-29T16:04:54.491Z,52.76
2019-04-29T16:07:46.725Z,52.28
2019-04-29T16:10:51.801Z,53.33
2019-04-29T16:13:27.651Z,53.34
2019-04-29T16:15:56.767Z,53.72
2019-04-29T16:18:28.085Z,52.48
2019-04-29T16:20:59.352Z,53.50
2019-04-29T16:23:32.890Z,53.42
2019-04-29T16:26:03.582Z,53.19
2019-04-29T16:28:39.954Z,54.37
2019-04-29T16:31:12.049Z,54.67
2019-04-29T16:33:47.291Z,55.15
2019-04-29T16:36:15.951Z,54.02
2019-04-29T16:38:51.247Z,55.00
2019-04-29T16:41:50.984Z,56.03
2019-04-29T16:44:34.670Z,56.37
2019-04-29T16:46:53.949Z,55.74
2019-04-29T16:49:25.297Z,55.86
2019-04-29T16:51:56.557Z,57.35
2019-04-29T16:54:28.607Z,57.24
2019-04-29T16:57:00.002Z,57.67
2019-04-29T16:59:31.430Z,57.22
2019-04-29T17:02:02.915Z,59.25
2019-04-29T17:04:34.140Z,59.86
2019-04-29T17:07:13.999Z,58.54
2019-04-29T17:10:15.608Z,59.47
2019-04-29T17:12:50.822Z,59.44
2019-04-29T17:15:25.545Z,59.66
2019-04-29T17:17:54.952Z,60.40
2019-04-29T17:20:26.389Z,60.16
2019-04-29T17:22:58.898Z,61.38
2019-04-29T17:25:30.065Z,61.19
2019-04-29T17:31:14.614Z,62.20
2019-04-29T17:34:29.512Z,62.23
2019-04-29T17:35:19.072Z,62.27
2019-04-29T17:36:50.794Z,62.82
2019-04-29T17:39:22.409Z,62.38
2019-04-29T17:41:53.914Z,63.42
2019-04-29T17:44:55.341Z,63.96
2019-04-29T17:47:49.161Z,63.32
2019-04-29T17:50:30.695Z,63.78
2019-04-29T17:53:02.195Z,64.32
2019-04-29T17:55:42.103Z,63.90
2019-04-29T17:58:22.772Z,63.18
2019-04-29T18:01:15.847Z,63.05
2019-04-29T18:04:16.840Z,63.64
2019-04-29T18:06:49.575Z,63.92
2019-04-29T18:09:37.550Z,63.17
2019-04-29T18:12:18.970Z,64.53
2019-04-29T18:14:50.501Z,64.31
2019-04-29T18:17:31.264Z,65.15
2019-04-29T18:20:24.897Z,64.81
2019-04-29T18:23:19.214Z,65.02
2019-04-29T18:26:17.015Z,64.80
2019-04-29T18:28:52.273Z,65.29
2019-04-29T18:31:26.530Z,65.42
2019-04-29T18:33:59.346Z,66.31
2019-04-29T18:36:30.994Z,66.10
2019-04-29T18:39:07.034Z,66.26
2019-04-29T18:41:39.630Z,66.33
2019-04-29T18:44:18.961Z,66.67
2019-04-29T18:46:53.167Z,66.55
2019-04-29T18:49:23.505Z,66.43
2019-04-29T18:51:57.907Z,67.39
2019-04-29T18:54:35.786Z,66.56
2019-04-29T18:57:07.398Z,66.86
2019-04-29T18:59:38.589Z,67.17
2019-04-29T19:02:09.849Z,67.49
2019-04-29T19:04:58.739Z,68.22
2019-04-29T19:07:31.830Z,68.52
2019-04-29T19:10:03.138Z,68.26
2019-04-29T19:12:36.456Z,68.03
2019-04-29T19:15:11.406Z,68.54
2019-04-29T19:17:41.062Z,68.49
2019-04-29T19:20:18.361Z,69.29
2019-04-29T19:22:47.398Z,69.38
2019-04-29T19:25:18.715Z,69.99
2019-04-29T19:27:49.931Z,70.24
2019-04-29T19:30:26.486Z,70.66
2019-04-29T19:33:00.406Z,71.24
2019-04-29T19:35:29.502Z,71.02
2019-04-29T19:38:00.193Z,71.61
2019-04-29T19:40:40.513Z,71.62
2019-04-29T19:43:10.226Z,71.88
2019-04-29T19:45:39.445Z,71.95
2019-04-29T19:48:10.658Z,72.03
2019-04-29T19:50:41.974Z,71.56
2019-04-29T19:53:14.816Z,71.99
2019-04-29T19:55:46.313Z,71.80
2019-04-29T19:58:28.521Z,71.66
2019-04-29T20:00:53.727Z,72.07
2019-04-29T20:03:36.013Z,72.05
2019-04-29T20:06:08.904Z,71.96
2019-04-29T20:08:52.579Z,72.51
2019-04-29T20:11:14.122Z,71.77
2019-04-29T20:13:52.041Z,71.46
2019-04-29T20:16:57.549Z,72.07
2019-04-29T20:19:31.148Z,71.38
2019-04-29T20:22:07.461Z,71.98
2019-04-29T20:24:36.397Z,70.87
2019-04-29T20:27:07.958Z,71.47
2019-04-29T20:29:39.435Z,70.94
2019-04-29T20:32:10.947Z,71.10
2019-04-29T20:34:42.389Z,71.11
2019-04-29T20:37:16.150Z,71.54
2019-04-29T20:39:46.566Z,71.37
2019-04-29T20:42:17.943Z,71.15
2019-04-29T20:44:49.566Z,71.53
2019-04-29T20:47:23.529Z,71.02
2019-04-29T20:49:53.872Z,71.37
2019-04-29T20:52:36.202Z,70.99
2019-04-29T20:55:10.214Z,71.30
2019-04-29T20:57:41.687Z,71.20
2019-04-29T21:00:14.327Z,71.43
2019-04-29T21:02:48.527Z,71.54
2019-04-29T21:05:23.298Z,71.19
2019-04-29T21:08:02.637Z,71.51
2019-04-29T21:10:26.108Z,71.16
2019-04-29T21:13:31.253Z,71.43
2019-04-29T21:16:22.812Z,71.95
2019-04-29T21:18:57.090Z,71.72
2019-04-29T21:21:28.346Z,72.45
2019-04-29T21:23:59.629Z,72.20
2019-04-29T21:26:30.922Z,72.39
2019-04-29T21:29:02.218Z,72.48
2019-04-29T21:31:35.422Z,72.40
2019-04-29T21:34:06.414Z,72.80
2019-04-29T21:37:01.695Z,73.02
2019-04-29T21:39:41.206Z,72.28
2019-04-29T21:42:22.585Z,73.21
2019-04-29T21:44:53.857Z,73.38
2019-04-29T21:47:28.147Z,72.94
2019-04-29T21:49:58.019Z,72.67
2019-04-29T21:52:29.526Z,73.48
2019-04-29T21:55:00.780Z,73.79
2019-04-29T21:57:32.044Z,73.54
2019-04-29T22:00:03.277Z,74.27
2019-04-29T22:02:35.816Z,73.57
2019-04-29T22:05:09.712Z,74.29
2019-04-29T22:07:45.905Z,74.38
2019-04-29T22:10:15.441Z,73.74
2019-04-29T22:12:50.884Z,74.39
2019-04-29T22:15:29.893Z,74.12
2019-04-29T22:17:56.427Z,74.09
2019-04-29T22:20:25.845Z,74.43
2019-04-29T22:22:57.423Z,74.57
2019-04-29T22:25:28.903Z,74.66
2019-04-29T22:28:00.166Z,74.81
2019-04-29T22:30:31.618Z,74.50
2019-04-29T22:33:02.791Z,75.08
2019-04-29T22:35:39.445Z,74.61
2019-04-29T22:38:12.677Z,75.00
2019-04-29T22:40:45.196Z,75.38
2019-04-29T22:43:44.599Z,75.31
2019-04-29T22:46:17.665Z,75.76
2019-04-29T22:48:49.051Z,75.62
2019-04-29T22:51:20.285Z,75.88
2019-04-29T22:53:51.465Z,76.59
2019-04-29T22:56:22.754Z,76.23
2019-04-29T22:58:55.868Z,75.90
2019-04-29T23:01:26.915Z,75.77
2019-04-29T23:03:58.153Z,75.56
2019-04-29T23:06:29.353Z,75.58
2019-04-29T23:09:00.683Z,75.92
2019-04-29T23:11:34.780Z,76.22
2019-04-29T23:14:08.556Z,76.76
2019-04-29T23:16:37.945Z,76.09
2019-04-29T23:19:13.625Z,75.98
2019-04-29T23:22:07.479Z,75.82
2019-04-29T23:24:55.868Z,75.80
2019-04-29T23:27:27.231Z,75.97
2019-04-29T23:29:58.493Z,76.20
2019-04-29T23:32:29.766Z,76.66
2019-04-29T23:35:01.669Z,76.75
2019-04-29T23:37:35.784Z,76.75
2019-04-29T23:40:08.556Z,77.04
2019-04-29T23:42:43.644Z,77.26
2019-04-29T23:45:16.314Z,77.42
2019-04-29T23:47:49.274Z,77.82
2019-04-29T23:50:20.206Z,77.75
2019-04-29T23:52:52.033Z,77.92
2019-04-29T23:55:25.601Z,78.29
2019-04-29T23:58:14.122Z,78.22
